createdAt,value
2022-11-21T00:01:20.735Z,19.67
2022-11-21T00:03:48.324Z,19.35
2022-11-21T00:06:16.157Z,19.45
2022-11-21T00:08:43.611Z,19.75
2022-11-21T00:11:10.872Z,18.70
2022-11-21T00:13:38.467Z,19.85
2022-11-21T00:16:07.585Z,20.27
2022-11-21T00:18:35.560Z,19.55
2022-11-21T00:21:13.986Z,19.95
2022-11-21T00:23:41.501Z,20.60
2022-11-21T00:26:10.043Z,19.52
2022-11-21T00:28:37.593Z,20.48
2022-11-21T00:31:05.703Z,20.15
2022-11-21T00:33:36.904Z,20.77
2022-11-21T00:36:08.586Z,21.50
2022-11-21T00:38:35.826Z,20.33
2022-11-21T00:41:03.040Z,20.55
2022-11-21T00:43:30.197Z,20.30
2022-11-21T00:45:58.629Z,21.55
2022-11-21T00:48:25.776Z,20.80
2022-11-21T00:50:53.233Z,20.23
2022-11-21T00:53:20.453Z,19.38
2022-11-21T00:55:47.696Z,19.92
2022-11-21T00:58:14.886Z,22.48
2022-11-21T01:00:42.183Z,20.73
2022-11-21T01:03:09.605Z,19.92
2022-11-21T01:05:36.771Z,20.73
2022-11-21T01:08:04.110Z,21.27
2022-11-21T01:10:31.293Z,21.10
2022-11-21T01:12:58.499Z,20.65
2022-11-21T01:15:25.680Z,20.58
2022-11-21T01:17:53.226Z,21.45
2022-11-21T01:20:20.447Z,20.38
2022-11-21T01:22:47.621Z,21.60
2022-11-21T01:25:14.886Z,21.33
2022-11-21T01:27:42.356Z,21.55
2022-11-21T01:30:10.393Z,21.73
2022-11-21T01:32:37.561Z,21.40
2022-11-21T01:35:05.209Z,21.70
2022-11-21T01:37:32.436Z,20.60
2022-11-21T01:39:59.617Z,21.98
2022-11-21T01:42:26.871Z,20.70
2022-11-21T01:44:54.712Z,22.52
2022-11-21T01:47:22.777Z,20.88
2022-11-21T01:49:50.869Z,21.08
2022-11-21T01:52:28.239Z,21.75
2022-11-21T01:55:05.290Z,21.85
2022-11-21T01:57:37.817Z,22.02
2022-11-21T02:00:21.978Z,22.20
2022-11-21T02:03:00.836Z,21.73
2022-11-21T02:05:30.741Z,21.75
2022-11-21T02:08:02.303Z,23.45
2022-11-21T02:10:29.582Z,24.27
2022-11-21T02:12:58.777Z,23.67
2022-11-21T02:15:28.043Z,22.30
2022-11-21T02:20:25.300Z,22.13
2022-11-21T02:23:19.364Z,23.10
2022-11-21T02:25:46.607Z,25.00
2022-11-21T02:28:16.710Z,23.25
2022-11-21T02:30:44.207Z,23.95
2022-11-21T02:33:12.368Z,22.60
2022-11-21T02:35:39.893Z,21.33
2022-11-21T02:38:18.293Z,21.98
2022-11-21T02:40:55.114Z,21.80
2022-11-21T02:43:28.618Z,22.80
2022-11-21T02:45:56.227Z,22.33
2022-11-21T02:48:23.407Z,22.48
2022-11-21T02:50:50.663Z,22.27
2022-11-21T02:53:19.212Z,23.10
2022-11-21T02:55:46.765Z,22.80
2022-11-21T02:58:14.576Z,23.23
2022-11-21T03:00:42.823Z,22.10
2022-11-21T03:03:10.409Z,22.67
2022-11-21T03:05:38.389Z,21.77
2022-11-21T03:08:05.956Z,22.23
2022-11-21T03:10:33.293Z,22.35
2022-11-21T03:13:03.248Z,21.77
2022-11-21T03:15:32.519Z,21.30
2022-11-21T03:18:02.663Z,23.30
2022-11-21T03:20:31.072Z,21.58
2022-11-21T03:22:58.395Z,22.15
2022-11-21T03:25:25.662Z,22.52
2022-11-21T03:27:53.806Z,21.65
2022-11-21T03:30:22.204Z,22.23
2022-11-21T03:32:49.427Z,21.95
2022-11-21T03:35:16.831Z,23.92
2022-11-21T03:37:44.034Z,21.58
2022-11-21T03:40:11.869Z,23.25
2022-11-21T03:42:39.058Z,22.50
2022-11-21T03:45:06.738Z,21.23
2022-11-21T03:47:33.935Z,21.20
2022-11-21T03:50:01.132Z,23.83
2022-11-21T03:52:28.361Z,22.83
2022-11-21T03:54:55.518Z,23.35
2022-11-21T03:57:22.763Z,23.00
2022-11-21T03:59:49.931Z,23.83
2022-11-21T04:02:17.141Z,25.60
2022-11-21T04:04:44.324Z,23.73
2022-11-21T04:07:11.589Z,26.33
2022-11-21T04:09:38.829Z,24.30
2022-11-21T04:12:07.926Z,23.83
2022-11-21T04:17:02.508Z,23.20
2022-11-21T04:19:29.743Z,23.15
2022-11-21T04:21:56.918Z,22.33
2022-11-21T04:24:24.191Z,24.20
2022-11-21T04:26:51.458Z,24.08
2022-11-21T04:29:18.607Z,25.45
2022-11-21T04:31:45.790Z,23.23
2022-11-21T04:34:12.992Z,23.20
2022-11-21T04:36:40.212Z,23.45
2022-11-21T04:39:07.399Z,23.90
2022-11-21T04:41:34.650Z,23.52
2022-11-21T04:44:01.812Z,22.73
2022-11-21T04:46:28.996Z,25.08
2022-11-21T04:48:56.233Z,24.20
2022-11-21T04:51:23.509Z,24.10
2022-11-21T04:53:50.670Z,25.17
2022-11-21T04:56:18.031Z,24.88
2022-11-21T04:58:45.427Z,26.00
2022-11-21T05:01:12.760Z,25.35
2022-11-21T05:03:40.200Z,26.08
2022-11-21T05:06:07.361Z,25.60
2022-11-21T05:08:34.576Z,26.77
2022-11-21T05:11:20.219Z,26.95
2022-11-21T05:13:47.442Z,26.20
2022-11-21T05:16:14.656Z,27.85
2022-11-21T05:18:41.888Z,25.90
2022-11-21T05:21:09.057Z,26.92
2022-11-21T05:23:36.301Z,28.33
2022-11-21T05:26:03.467Z,27.45
2022-11-21T05:28:30.649Z,28.45
2022-11-21T05:30:57.798Z,27.25
2022-11-21T05:33:25.000Z,26.67
2022-11-21T05:35:52.138Z,26.38
2022-11-21T05:38:19.327Z,31.27
2022-11-21T05:40:46.559Z,35.42
2022-11-21T05:43:32.261Z,32.22
2022-11-21T05:45:59.572Z,26.52
2022-11-21T05:48:26.843Z,26.67
2022-11-21T05:50:54.029Z,25.30
2022-11-21T05:53:21.263Z,28.27
2022-11-21T05:55:48.528Z,27.83
2022-11-21T05:58:15.825Z,26.98
2022-11-21T06:00:43.155Z,30.95
2022-11-21T06:03:30.622Z,30.58
2022-11-21T06:06:01.829Z,32.75
2022-11-21T06:08:30.219Z,31.10
2022-11-21T06:10:57.705Z,29.10
2022-11-21T06:13:25.071Z,26.83
2022-11-21T06:16:04.317Z,27.98
2022-11-21T06:18:38.912Z,28.05
2022-11-21T06:21:12.990Z,27.65
2022-11-21T06:23:40.356Z,27.10
2022-11-21T06:26:12.063Z,26.00
2022-11-21T06:28:40.679Z,26.48
2022-11-21T06:31:19.642Z,27.73
2022-11-21T06:33:47.333Z,28.52
2022-11-21T06:36:16.582Z,29.25
2022-11-21T06:38:44.701Z,28.20
2022-11-21T06:41:16.984Z,27.90
2022-11-21T06:43:44.319Z,26.50
2022-11-21T06:46:12.332Z,27.45
2022-11-21T06:48:40.151Z,27.90
2022-11-21T06:51:09.217Z,28.27
2022-11-21T06:53:36.501Z,29.00
2022-11-21T06:56:04.238Z,28.33
2022-11-21T06:58:32.052Z,27.92
2022-11-21T07:01:03.111Z,27.55
2022-11-21T07:03:30.378Z,27.73
2022-11-21T07:06:01.576Z,28.42
2022-11-21T07:08:29.495Z,27.20
2022-11-21T07:11:23.754Z,25.98
2022-11-21T07:13:48.157Z,25.70
2022-11-21T07:16:15.483Z,27.65
2022-11-21T07:18:43.435Z,27.02
2022-11-21T07:21:10.952Z,25.50
2022-11-21T07:23:38.271Z,25.25
2022-11-21T07:26:07.272Z,25.55
2022-11-21T07:28:35.138Z,27.10
2022-11-21T07:31:08.482Z,27.38
2022-11-21T07:33:37.383Z,26.50
2022-11-21T07:36:05.065Z,28.25
2022-11-21T07:38:32.321Z,27.70
2022-11-21T07:40:59.568Z,29.13
2022-11-21T07:43:26.908Z,27.92
2022-11-21T07:45:54.109Z,28.17
2022-11-21T07:48:21.397Z,29.25
2022-11-21T07:50:48.582Z,28.15
2022-11-21T07:53:15.873Z,28.10
2022-11-21T07:55:43.038Z,26.92
2022-11-21T07:58:12.864Z,27.48
2022-11-21T08:00:43.102Z,27.63
2022-11-21T08:03:12.073Z,28.67
2022-11-21T08:05:43.897Z,28.58
2022-11-21T08:08:12.845Z,28.60
2022-11-21T08:10:44.428Z,29.63
2022-11-21T08:13:12.134Z,34.95
2022-11-21T08:15:39.503Z,29.98
2022-11-21T08:18:11.193Z,29.58
2022-11-21T08:20:38.858Z,30.48
2022-11-21T08:23:06.620Z,30.15
2022-11-21T08:25:36.382Z,30.92
2022-11-21T08:28:03.641Z,30.52
2022-11-21T08:30:31.437Z,31.73
2022-11-21T08:32:59.264Z,29.33
2022-11-21T08:35:27.068Z,29.63
2022-11-21T08:38:01.509Z,28.92
2022-11-21T08:40:30.428Z,28.48
2022-11-21T08:43:03.930Z,30.05
2022-11-21T08:45:31.444Z,30.17
2022-11-21T08:47:58.897Z,27.23
2022-11-21T08:50:28.007Z,28.80
2022-11-21T08:53:01.449Z,23.85
2022-11-21T08:55:29.018Z,25.17
2022-11-21T08:57:56.219Z,26.33
2022-11-21T09:00:23.622Z,23.73
2022-11-21T09:02:50.864Z,24.35
2022-11-21T09:05:18.198Z,22.55
2022-11-21T09:07:45.599Z,25.90
2022-11-21T09:10:12.915Z,21.13
2022-11-21T09:12:40.151Z,22.50
2022-11-21T09:15:28.008Z,23.73
2022-11-21T09:18:12.997Z,21.30
2022-11-21T09:20:42.368Z,26.33
2022-11-21T09:25:37.976Z,18.92
2022-11-21T09:28:07.179Z,20.17
2022-11-21T09:30:34.728Z,19.95
2022-11-21T09:33:06.950Z,20.67
2022-11-21T09:35:34.215Z,20.88
2022-11-21T09:38:01.665Z,21.20
2022-11-21T09:40:33.680Z,19.58
2022-11-21T09:43:27.735Z,21.77
2022-11-21T09:46:13.923Z,21.33
2022-11-21T09:48:46.935Z,21.25
2022-11-21T09:51:17.175Z,25.45
2022-11-21T09:53:52.202Z,21.58
2022-11-21T09:56:20.060Z,20.45
2022-11-21T09:59:03.338Z,21.73
2022-11-21T10:01:30.784Z,17.88
2022-11-21T10:03:58.129Z,20.30
2022-11-21T10:06:31.785Z,19.70
2022-11-21T10:09:18.661Z,20.15
2022-11-21T10:12:32.896Z,22.45
2022-11-21T10:15:40.934Z,18.92
2022-11-21T10:18:17.745Z,17.13
2022-11-21T10:21:07.230Z,22.58
2022-11-21T10:23:40.922Z,17.90
2022-11-21T10:26:19.704Z,19.65
2022-11-21T10:28:57.130Z,20.25
2022-11-21T10:31:25.325Z,18.00
2022-11-21T10:33:53.998Z,17.30
2022-11-21T10:36:39.661Z,16.50
2022-11-21T10:39:14.741Z,15.90
2022-11-21T10:42:04.630Z,17.92
2022-11-21T10:44:50.887Z,17.55
2022-11-21T10:47:30.069Z,18.45
2022-11-21T10:50:10.203Z,18.23
2022-11-21T10:52:56.800Z,17.35
2022-11-21T10:55:24.013Z,17.70
2022-11-21T10:57:52.339Z,28.85
2022-11-21T11:00:27.239Z,54.83
2022-11-21T11:02:57.462Z,58.03
2022-11-21T11:06:02.679Z,49.45
2022-11-21T11:08:53.149Z,145.73
2022-11-21T11:11:25.732Z,57.65
2022-11-21T11:14:03.010Z,23.23
2022-11-21T11:16:41.376Z,15.82
2022-11-21T11:19:24.355Z,18.52
2022-11-21T11:21:57.191Z,17.40
2022-11-21T11:24:26.966Z,16.27
2022-11-21T11:27:01.168Z,16.35
2022-11-21T11:29:30.736Z,16.42
2022-11-21T11:32:06.389Z,15.68
2022-11-21T11:34:38.533Z,14.90
2022-11-21T11:37:15.255Z,16.45
2022-11-21T11:40:04.111Z,14.43
2022-11-21T11:43:08.279Z,15.45
2022-11-21T11:46:30.472Z,14.95
2022-11-21T11:49:23.580Z,15.45
2022-11-21T11:52:01.129Z,15.80
2022-11-21T11:54:34.928Z,15.75
2022-11-21T11:57:04.862Z,16.10
2022-11-21T11:59:39.506Z,15.70
2022-11-21T12:02:15.853Z,17.08
2022-11-21T12:04:57.954Z,17.83
2022-11-21T12:11:25.075Z,27.20
2022-11-21T12:13:55.507Z,21.30
2022-11-21T12:16:24.644Z,18.73
2022-11-21T12:19:00.572Z,15.70
2022-11-21T12:21:28.983Z,16.60
2022-11-21T12:23:58.331Z,15.85
2022-11-21T12:29:17.050Z,20.23
2022-11-21T12:32:21.100Z,40.63
2022-11-21T12:35:10.307Z,32.88
2022-11-21T12:38:01.950Z,54.08
2022-11-21T12:40:57.403Z,19.75
2022-11-21T12:43:57.558Z,25.38
2022-11-21T12:46:58.550Z,19.15
2022-11-21T12:49:56.261Z,17.02
2022-11-21T12:52:52.046Z,15.05
2022-11-21T12:55:35.083Z,13.85
2022-11-21T12:58:27.099Z,16.52
2022-11-21T13:01:38.085Z,14.32
2022-11-21T13:04:26.871Z,14.73
2022-11-21T13:06:54.775Z,14.25
2022-11-21T13:09:23.916Z,14.75
2022-11-21T13:12:12.923Z,14.60
2022-11-21T13:14:51.999Z,16.23
2022-11-21T13:17:25.345Z,16.40
2022-11-21T13:20:01.073Z,16.02
2022-11-21T13:22:37.145Z,16.23
2022-11-21T13:25:28.386Z,13.68
2022-11-21T13:27:55.687Z,13.75
2022-11-21T13:30:24.339Z,12.23
2022-11-21T13:32:55.899Z,13.65
2022-11-21T13:35:46.207Z,14.48
2022-11-21T13:38:13.385Z,15.15
2022-11-21T13:41:04.258Z,15.98
2022-11-21T13:43:33.820Z,15.48
2022-11-21T13:46:01.938Z,15.07
2022-11-21T13:48:31.939Z,14.43
2022-11-21T13:51:14.329Z,14.00
2022-11-21T13:54:14.563Z,14.38
2022-11-21T13:57:05.861Z,15.38
2022-11-21T13:59:58.247Z,14.65
2022-11-21T14:02:50.830Z,14.32
2022-11-21T14:05:48.776Z,14.88
2022-11-21T14:08:22.248Z,15.68
2022-11-21T14:10:51.616Z,17.50
2022-11-21T14:16:13.680Z,14.15
2022-11-21T14:18:43.681Z,14.30
2022-11-21T14:21:26.471Z,15.40
2022-11-21T14:24:06.649Z,15.63
2022-11-21T14:26:40.415Z,16.10
2022-11-21T14:29:18.070Z,15.75
2022-11-21T14:31:47.292Z,16.92
2022-11-21T14:36:50.843Z,16.42
2022-11-21T14:42:10.631Z,16.23
2022-11-21T14:44:38.019Z,16.05
2022-11-21T14:47:25.161Z,16.98
2022-11-21T14:49:55.557Z,17.33
2022-11-21T14:52:29.214Z,17.58
2022-11-21T14:57:53.029Z,15.95
2022-11-21T15:00:57.993Z,16.27
2022-11-21T15:03:22.307Z,16.15
2022-11-21T15:06:08.616Z,22.55
2022-11-21T15:09:39.502Z,18.80
2022-11-21T15:14:14.806Z,17.27
2022-11-21T15:16:43.818Z,18.48
2022-11-21T15:19:11.283Z,18.55
2022-11-21T15:21:46.146Z,17.92
2022-11-21T15:24:29.590Z,19.50
2022-11-21T15:26:57.293Z,17.75
2022-11-21T15:29:24.776Z,18.48
2022-11-21T15:32:16.257Z,18.88
2022-11-21T15:34:44.283Z,18.27
2022-11-21T15:37:18.463Z,18.33
2022-11-21T15:39:48.392Z,17.77
2022-11-21T15:42:33.805Z,19.73
2022-11-21T15:45:23.913Z,19.48
2022-11-21T15:47:51.119Z,19.52
2022-11-21T15:50:18.633Z,19.77
2022-11-21T15:52:48.193Z,20.55
2022-11-21T15:55:20.032Z,21.35
2022-11-21T15:57:47.199Z,20.75
2022-11-21T16:00:14.975Z,21.50
2022-11-21T16:02:42.173Z,22.65
2022-11-21T16:05:13.949Z,19.75
2022-11-21T16:07:41.847Z,21.83
2022-11-21T16:10:16.526Z,23.00
2022-11-21T16:12:47.081Z,23.85
2022-11-21T16:15:14.572Z,24.42
2022-11-21T16:17:41.880Z,23.38
2022-11-21T16:20:09.377Z,23.05
2022-11-21T16:22:36.679Z,23.20
2022-11-21T16:25:04.214Z,23.73
2022-11-21T16:27:32.699Z,24.70
2022-11-21T16:29:59.884Z,24.47
2022-11-21T16:32:27.342Z,23.52
2022-11-21T16:34:58.381Z,22.48
2022-11-21T16:37:25.675Z,22.80
2022-11-21T16:39:52.927Z,24.02
2022-11-21T16:42:20.483Z,22.90
2022-11-21T16:44:48.156Z,23.88
2022-11-21T16:47:15.591Z,23.52
2022-11-21T16:49:48.479Z,25.35
2022-11-21T16:52:18.029Z,24.95
2022-11-21T16:54:45.309Z,25.20
2022-11-21T16:57:12.487Z,26.48
2022-11-21T16:59:39.661Z,26.52
2022-11-21T17:02:06.881Z,25.88
2022-11-21T17:04:34.612Z,26.65
2022-11-21T17:07:02.425Z,25.35
2022-11-21T17:09:29.670Z,24.75
2022-11-21T17:12:00.102Z,25.98
2022-11-21T17:14:27.658Z,26.25
2022-11-21T17:16:55.100Z,25.17
2022-11-21T17:19:22.423Z,25.77
2022-11-21T17:21:49.603Z,25.38
2022-11-21T17:24:17.914Z,26.45
2022-11-21T17:26:45.092Z,23.98
2022-11-21T17:29:12.252Z,23.08
2022-11-21T17:31:41.885Z,24.40
2022-11-21T17:34:09.123Z,24.55
2022-11-21T17:36:36.358Z,24.13
2022-11-21T17:39:03.601Z,23.75
2022-11-21T17:41:31.012Z,25.83
2022-11-21T17:43:59.624Z,26.20
2022-11-21T17:46:27.356Z,24.80
2022-11-21T17:48:58.445Z,26.35
2022-11-21T17:51:29.204Z,27.35
2022-11-21T17:53:56.539Z,28.35
2022-11-21T17:56:27.839Z,28.50
2022-11-21T17:58:55.520Z,28.70
2022-11-21T18:01:23.343Z,25.48
2022-11-21T18:03:58.855Z,26.38
2022-11-21T18:06:28.429Z,25.70
2022-11-21T18:08:58.442Z,25.30
2022-11-21T18:11:28.515Z,25.58
2022-11-21T18:13:55.766Z,26.23
2022-11-21T18:16:26.014Z,26.60
2022-11-21T18:18:53.707Z,26.13
2022-11-21T18:21:25.941Z,26.02
2022-11-21T18:23:54.094Z,26.70
2022-11-21T18:26:26.761Z,26.42
2022-11-21T18:29:13.578Z,26.25
2022-11-21T18:31:44.273Z,26.42
2022-11-21T18:34:12.411Z,26.15
2022-11-21T18:36:39.700Z,25.30
2022-11-21T18:39:14.197Z,29.55
2022-11-21T18:41:42.324Z,32.13
2022-11-21T18:44:10.018Z,29.58
2022-11-21T18:46:38.642Z,28.83
2022-11-21T18:49:07.760Z,27.13
2022-11-21T18:51:36.042Z,25.45
2022-11-21T18:54:08.036Z,25.95
2022-11-21T18:56:36.289Z,25.40
2022-11-21T18:59:05.387Z,26.90
2022-11-21T19:01:33.148Z,26.05
2022-11-21T19:04:00.521Z,26.30
2022-11-21T19:06:28.305Z,26.85
2022-11-21T19:08:57.229Z,26.35
2022-11-21T19:11:29.018Z,27.63
2022-11-21T19:13:57.408Z,27.75
2022-11-21T19:16:26.366Z,27.55
2022-11-21T19:19:26.482Z,27.67
2022-11-21T19:21:42.556Z,31.85
2022-11-21T19:24:13.960Z,41.75
2022-11-21T19:26:41.593Z,25.75
2022-11-21T19:29:09.179Z,21.75
2022-11-21T19:31:41.028Z,23.30
2022-11-21T19:34:12.183Z,22.38
2022-11-21T19:36:39.564Z,23.50
2022-11-21T19:39:06.868Z,22.02
2022-11-21T19:41:34.457Z,21.35
2022-11-21T19:44:02.388Z,21.40
2022-11-21T19:46:31.830Z,21.00
2022-11-21T19:48:59.769Z,20.75
2022-11-21T19:51:32.105Z,21.45
2022-11-21T19:54:01.145Z,22.38
2022-11-21T19:56:28.358Z,23.58
2022-11-21T19:58:56.928Z,22.15
2022-11-21T20:01:26.498Z,22.23
2022-11-21T20:03:56.830Z,21.95
2022-11-21T20:06:26.202Z,21.02
2022-11-21T20:11:31.084Z,21.20
2022-11-21T20:13:58.625Z,21.80
2022-11-21T20:16:31.312Z,20.75
2022-11-21T20:19:00.920Z,20.23
2022-11-21T20:21:28.187Z,21.00
2022-11-21T20:23:55.454Z,20.63
2022-11-21T20:26:23.619Z,21.38
2022-11-21T20:28:51.279Z,20.95
2022-11-21T20:31:20.561Z,20.75
2022-11-21T20:36:21.337Z,18.65
2022-11-21T20:39:17.848Z,19.48
2022-11-21T20:41:46.584Z,19.35
2022-11-21T20:47:07.012Z,17.48
2022-11-21T20:49:34.945Z,19.65
2022-11-21T20:53:43.923Z,17.70
2022-11-21T20:54:49.747Z,18.00
2022-11-21T20:57:16.957Z,18.35
2022-11-21T20:59:44.181Z,17.17
2022-11-21T21:02:14.849Z,17.83
2022-11-21T21:04:42.545Z,15.88
2022-11-21T21:07:09.851Z,15.80
2022-11-21T21:09:37.198Z,16.25
2022-11-21T21:12:05.590Z,15.35
2022-11-21T21:14:32.883Z,13.80
2022-11-21T21:17:00.170Z,15.65
2022-11-21T21:19:27.584Z,14.88
2022-11-21T21:21:55.086Z,13.88
2022-11-21T21:24:22.488Z,14.20
2022-11-21T21:26:50.094Z,13.65
2022-11-21T21:29:22.804Z,12.93
2022-11-21T21:31:52.060Z,12.40
2022-11-21T21:34:21.147Z,12.18
2022-11-21T21:36:48.768Z,13.40
2022-11-21T21:39:16.060Z,12.38
2022-11-21T21:41:47.133Z,12.93
2022-11-21T21:44:15.101Z,11.57
2022-11-21T21:46:42.280Z,13.20
2022-11-21T21:49:09.507Z,12.25
2022-11-21T21:51:37.470Z,10.52
2022-11-21T21:54:04.982Z,11.20
2022-11-21T21:56:32.463Z,12.55
2022-11-21T21:59:00.146Z,11.98
2022-11-21T22:01:29.159Z,12.55
2022-11-21T22:03:58.032Z,12.65
2022-11-21T22:06:25.474Z,12.93
2022-11-21T22:08:53.313Z,12.60
2022-11-21T22:11:23.899Z,13.63
2022-11-21T22:13:59.386Z,12.60
2022-11-21T22:16:27.121Z,12.10
2022-11-21T22:18:54.599Z,13.23
2022-11-21T22:21:24.481Z,12.38
2022-11-21T22:26:39.343Z,12.27
2022-11-21T22:29:06.657Z,12.27
2022-11-21T22:31:35.079Z,12.90
2022-11-21T22:34:02.302Z,11.98
2022-11-21T22:36:29.495Z,13.43
2022-11-21T22:38:57.056Z,13.80
2022-11-21T22:41:26.428Z,13.15
2022-11-21T22:46:27.100Z,13.00
2022-11-21T22:48:54.627Z,13.15
2022-11-21T22:51:23.994Z,15.05
2022-11-21T22:56:20.324Z,14.65
2022-11-21T22:58:48.015Z,15.50
2022-11-21T23:01:17.666Z,14.88
2022-11-21T23:03:45.457Z,14.50
2022-11-21T23:06:12.591Z,17.15
2022-11-21T23:08:40.600Z,17.00
2022-11-21T23:11:20.211Z,16.45
2022-11-21T23:13:49.150Z,18.58
2022-11-21T23:16:16.855Z,17.58
2022-11-21T23:18:44.059Z,17.60
2022-11-21T23:21:12.865Z,18.25
2022-11-21T23:23:40.215Z,18.17
2022-11-21T23:26:07.929Z,17.02
2022-11-21T23:28:35.299Z,17.00
2022-11-21T23:31:02.558Z,18.02
2022-11-21T23:33:29.828Z,16.95
2022-11-21T23:35:57.070Z,16.90
2022-11-21T23:38:24.310Z,16.65
2022-11-21T23:40:51.525Z,15.40
2022-11-21T23:43:19.043Z,16.83
2022-11-21T23:45:51.186Z,16.90
2022-11-21T23:48:19.175Z,16.25
2022-11-21T23:50:47.478Z,18.80
2022-11-21T23:53:14.931Z,16.40
2022-11-21T23:55:44.358Z,17.52
2022-11-21T23:58:12.276Z,17.45
